sensor_id;sensor_type;location;lat;lon;timestamp;pressure;altitude;pressure_sealevel;temperature;humidity
78835;BME280;68187;42.682;23.352;2023-04-24T00:01:53;94897.09;;;12.17;50.32
78835;BME280;68187;42.682;23.352;2023-04-24T00:04:23;94903.53;;;12.11;50.48
78835;BME280;68187;42.682;23.352;2023-04-24T00:06:51;94901.00;;;12.01;50.33
78835;BME280;68187;42.682;23.352;2023-04-24T00:09:19;94902.59;;;11.97;50.64
78835;BME280;68187;42.682;23.352;2023-04-24T00:11:46;94892.28;;;11.96;51.01
78835;BME280;68187;42.682;23.352;2023-04-24T00:14:13;94886.81;;;11.87;51.50
78835;BME280;68187;42.682;23.352;2023-04-24T00:16:40;94889.47;;;11.87;51.04
78835;BME280;68187;42.682;23.352;2023-04-24T00:19:06;94888.97;;;11.85;51.34
78835;BME280;68187;42.682;23.352;2023-04-24T00:21:35;94888.38;;;11.88;52.08
78835;BME280;68187;42.682;23.352;2023-04-24T00:24:01;94887.38;;;11.84;51.68
78835;BME280;68187;42.682;23.352;2023-04-24T00:26:28;94879.97;;;11.81;51.97
78835;BME280;68187;42.682;23.352;2023-04-24T00:28:55;94878.91;;;11.82;52.64
78835;BME280;68187;42.682;23.352;2023-04-24T00:31:22;94877.09;;;11.78;52.30
78835;BME280;68187;42.682;23.352;2023-04-24T00:33:48;94889.03;;;11.75;52.47
78835;BME280;68187;42.682;23.352;2023-04-24T00:36:15;94885.38;;;11.66;52.36
78835;BME280;68187;42.682;23.352;2023-04-24T00:38:43;94887.00;;;11.62;53.14
78835;BME280;68187;42.682;23.352;2023-04-24T00:41:11;94883.84;;;11.60;53.17
78835;BME280;68187;42.682;23.352;2023-04-24T00:43:38;94874.09;;;11.56;53.75
78835;BME280;68187;42.682;23.352;2023-04-24T00:46:05;94886.78;;;11.54;53.35
78835;BME280;68187;42.682;23.352;2023-04-24T00:48:32;94889.69;;;11.52;54.40
78835;BME280;68187;42.682;23.352;2023-04-24T00:50:59;94887.31;;;11.56;55.18
78835;BME280;68187;42.682;23.352;2023-04-24T00:53:26;94888.44;;;11.44;55.06
78835;BME280;68187;42.682;23.352;2023-04-24T00:55:54;94882.91;;;11.41;55.71
78835;BME280;68187;42.682;23.352;2023-04-24T00:58:22;94867.66;;;11.28;55.47
78835;BME280;68187;42.682;23.352;2023-04-24T01:00:49;94886.84;;;11.43;56.44
78835;BME280;68187;42.682;23.352;2023-04-24T01:03:19;94891.84;;;11.50;56.45
78835;BME280;68187;42.682;23.352;2023-04-24T01:05:48;94888.34;;;11.55;56.72
78835;BME280;68187;42.682;23.352;2023-04-24T01:08:16;94875.72;;;11.52;56.37
78835;BME280;68187;42.682;23.352;2023-04-24T01:10:44;94875.91;;;11.60;56.09
78835;BME280;68187;42.682;23.352;2023-04-24T01:13:15;94881.19;;;11.60;54.57
78835;BME280;68187;42.682;23.352;2023-04-24T01:15:42;94881.72;;;11.57;54.65
78835;BME280;68187;42.682;23.352;2023-04-24T01:18:09;94873.00;;;11.57;55.12
78835;BME280;68187;42.682;23.352;2023-04-24T01:20:36;94870.09;;;11.58;55.34
78835;BME280;68187;42.682;23.352;2023-04-24T01:23:06;94854.81;;;11.50;54.96
78835;BME280;68187;42.682;23.352;2023-04-24T01:25:33;94835.41;;;11.31;55.56
78835;BME280;68187;42.682;23.352;2023-04-24T01:28:00;94850.16;;;11.37;55.59
78835;BME280;68187;42.682;23.352;2023-04-24T01:30:27;94850.91;;;11.42;55.59
78835;BME280;68187;42.682;23.352;2023-04-24T01:32:55;94853.81;;;11.41;55.75
78835;BME280;68187;42.682;23.352;2023-04-24T01:35:22;94851.97;;;11.41;55.64
78835;BME280;68187;42.682;23.352;2023-04-24T01:37:49;94848.03;;;11.39;55.43
78835;BME280;68187;42.682;23.352;2023-04-24T01:40:17;94848.84;;;11.34;55.65
78835;BME280;68187;42.682;23.352;2023-04-24T01:42:44;94847.03;;;11.30;56.45
78835;BME280;68187;42.682;23.352;2023-04-24T01:45:11;94839.94;;;11.20;55.85
78835;BME280;68187;42.682;23.352;2023-04-24T01:47:39;94844.72;;;11.18;55.90
78835;BME280;68187;42.682;23.352;2023-04-24T01:50:07;94830.81;;;11.03;56.43
78835;BME280;68187;42.682;23.352;2023-04-24T01:52:34;94853.28;;;11.05;56.18
78835;BME280;68187;42.682;23.352;2023-04-24T01:55:01;94845.69;;;10.94;57.43
78835;BME280;68187;42.682;23.352;2023-04-24T01:57:31;94838.81;;;10.93;57.70
78835;BME280;68187;42.682;23.352;2023-04-24T01:59:57;94840.22;;;10.80;58.31
78835;BME280;68187;42.682;23.352;2023-04-24T02:02:24;94844.19;;;10.72;58.69
78835;BME280;68187;42.682;23.352;2023-04-24T02:04:52;94829.97;;;10.63;58.54
78835;BME280;68187;42.682;23.352;2023-04-24T02:07:19;94822.09;;;10.58;58.43
78835;BME280;68187;42.682;23.352;2023-04-24T02:09:46;94847.69;;;10.63;58.62
78835;BME280;68187;42.682;23.352;2023-04-24T02:12:13;94843.75;;;10.60;58.96
78835;BME280;68187;42.682;23.352;2023-04-24T02:14:41;94838.25;;;10.47;59.34
78835;BME280;68187;42.682;23.352;2023-04-24T02:17:08;94833.81;;;10.32;60.33
78835;BME280;68187;42.682;23.352;2023-04-24T02:19:38;94839.09;;;10.32;60.84
78835;BME280;68187;42.682;23.352;2023-04-24T02:22:05;94837.53;;;10.31;60.73
78835;BME280;68187;42.682;23.352;2023-04-24T02:24:32;94833.84;;;10.22;60.89
78835;BME280;68187;42.682;23.352;2023-04-24T02:26:59;94841.25;;;10.20;61.07
78835;BME280;68187;42.682;23.352;2023-04-24T02:29:27;94835.19;;;10.15;61.24
78835;BME280;68187;42.682;23.352;2023-04-24T02:31:55;94810.69;;;9.99;61.74
78835;BME280;68187;42.682;23.352;2023-04-24T02:34:22;94818.31;;;10.05;61.45
78835;BME280;68187;42.682;23.352;2023-04-24T02:36:48;94833.59;;;10.19;61.59
78835;BME280;68187;42.682;23.352;2023-04-24T02:39:15;94825.44;;;10.15;62.08
78835;BME280;68187;42.682;23.352;2023-04-24T02:41:42;94813.84;;;10.06;62.13
78835;BME280;68187;42.682;23.352;2023-04-24T02:44:09;94812.25;;;10.05;62.36
78835;BME280;68187;42.682;23.352;2023-04-24T02:46:36;94810.16;;;9.97;62.63
78835;BME280;68187;42.682;23.352;2023-04-24T02:49:04;94814.38;;;9.98;62.56
78835;BME280;68187;42.682;23.352;2023-04-24T02:51:31;94817.81;;;9.98;62.78
78835;BME280;68187;42.682;23.352;2023-04-24T02:53:58;94812.81;;;9.97;62.45
78835;BME280;68187;42.682;23.352;2023-04-24T02:56:25;94798.81;;;9.86;62.69
78835;BME280;68187;42.682;23.352;2023-04-24T02:58:51;94805.66;;;9.97;62.22
78835;BME280;68187;42.682;23.352;2023-04-24T03:01:18;94805.41;;;9.89;62.63
78835;BME280;68187;42.682;23.352;2023-04-24T03:03:45;94789.63;;;9.69;62.74
78835;BME280;68187;42.682;23.352;2023-04-24T03:06:13;94818.88;;;9.92;62.40
78835;BME280;68187;42.682;23.352;2023-04-24T03:08:40;94826.78;;;9.87;62.70
78835;BME280;68187;42.682;23.352;2023-04-24T03:11:07;94829.16;;;9.89;63.33
78835;BME280;68187;42.682;23.352;2023-04-24T03:13:34;94823.13;;;9.83;63.67
78835;BME280;68187;42.682;23.352;2023-04-24T03:16:02;94832.06;;;9.82;63.55
78835;BME280;68187;42.682;23.352;2023-04-24T03:18:28;94826.28;;;9.80;63.06
78835;BME280;68187;42.682;23.352;2023-04-24T03:20:55;94834.19;;;9.80;63.01
78835;BME280;68187;42.682;23.352;2023-04-24T03:23:24;94801.25;;;9.58;63.55
78835;BME280;68187;42.682;23.352;2023-04-24T03:25:50;94828.13;;;9.75;64.07
78835;BME280;68187;42.682;23.352;2023-04-24T03:28:17;94829.19;;;9.74;63.59
78835;BME280;68187;42.682;23.352;2023-04-24T03:30:45;94830.28;;;9.63;63.64
78835;BME280;68187;42.682;23.352;2023-04-24T03:33:11;94841.34;;;9.65;64.73
78835;BME280;68187;42.682;23.352;2023-04-24T03:35:38;94832.34;;;9.66;64.20
78835;BME280;68187;42.682;23.352;2023-04-24T03:38:05;94827.88;;;9.66;64.58
78835;BME280;68187;42.682;23.352;2023-04-24T03:40:33;94830.78;;;9.60;64.64
78835;BME280;68187;42.682;23.352;2023-04-24T03:43:01;94831.59;;;9.60;64.57
78835;BME280;68187;42.682;23.352;2023-04-24T03:45:27;94837.09;;;9.64;64.77
78835;BME280;68187;42.682;23.352;2023-04-24T03:47:54;94830.78;;;9.60;65.14
78835;BME280;68187;42.682;23.352;2023-04-24T03:50:21;94831.03;;;9.63;65.12
78835;BME280;68187;42.682;23.352;2023-04-24T03:52:48;94841.06;;;9.71;65.25
78835;BME280;68187;42.682;23.352;2023-04-24T03:55:15;94833.91;;;9.77;65.39
78835;BME280;68187;42.682;23.352;2023-04-24T03:57:43;94830.75;;;9.80;64.92
78835;BME280;68187;42.682;23.352;2023-04-24T04:00:11;94831.03;;;9.83;65.52
78835;BME280;68187;42.682;23.352;2023-04-24T04:02:38;94820.47;;;9.78;64.86
78835;BME280;68187;42.682;23.352;2023-04-24T04:05:05;94833.38;;;9.90;64.63
78835;BME280;68187;42.682;23.352;2023-04-24T04:07:31;94834.94;;;10.01;64.09
78835;BME280;68187;42.682;23.352;2023-04-24T04:09:58;94837.03;;;10.09;64.57
78835;BME280;68187;42.682;23.352;2023-04-24T04:12:25;94839.13;;;10.07;62.53
78835;BME280;68187;42.682;23.352;2023-04-24T04:14:53;94827.78;;;10.06;62.03
78835;BME280;68187;42.682;23.352;2023-04-24T04:17:20;94836.00;;;10.15;60.64
78835;BME280;68187;42.682;23.352;2023-04-24T04:19:46;94835.41;;;10.28;58.84
78835;BME280;68187;42.682;23.352;2023-04-24T04:22:13;94821.44;;;10.28;57.99
78835;BME280;68187;42.682;23.352;2023-04-24T04:24:40;94838.50;;;10.45;58.20
78835;BME280;68187;42.682;23.352;2023-04-24T04:27:07;94819.53;;;10.38;58.06
78835;BME280;68187;42.682;23.352;2023-04-24T04:29:34;94810.03;;;10.37;56.88
78835;BME280;68187;42.682;23.352;2023-04-24T04:32:02;94840.84;;;10.57;57.28
78835;BME280;68187;42.682;23.352;2023-04-24T04:34:29;94844.81;;;10.54;57.54
78835;BME280;68187;42.682;23.352;2023-04-24T04:36:57;94831.66;;;10.44;57.87
78835;BME280;68187;42.682;23.352;2023-04-24T04:39:26;94843.75;;;10.55;57.04
78835;BME280;68187;42.682;23.352;2023-04-24T04:41:53;94846.94;;;10.52;57.54
78835;BME280;68187;42.682;23.352;2023-04-24T04:44:20;94853.81;;;10.53;57.37
78835;BME280;68187;42.682;23.352;2023-04-24T04:46:47;94844.59;;;10.46;57.73
78835;BME280;68187;42.682;23.352;2023-04-24T04:49:15;94865.19;;;10.49;57.77
78835;BME280;68187;42.682;23.352;2023-04-24T04:51:43;94857.56;;;10.42;57.88
78835;BME280;68187;42.682;23.352;2023-04-24T04:54:10;94863.34;;;10.49;57.97
78835;BME280;68187;42.682;23.352;2023-04-24T04:56:37;94866.72;;;10.55;58.59
78835;BME280;68187;42.682;23.352;2023-04-24T04:59:03;94866.44;;;10.56;58.68
78835;BME280;68187;42.682;23.352;2023-04-24T05:01:31;94861.44;;;10.60;57.64
78835;BME280;68187;42.682;23.352;2023-04-24T05:03:58;94860.34;;;10.66;57.46
78835;BME280;68187;42.682;23.352;2023-04-24T05:06:26;94866.63;;;10.75;56.43
78835;BME280;68187;42.682;23.352;2023-04-24T05:08:53;94866.34;;;10.82;56.38
78835;BME280;68187;42.682;23.352;2023-04-24T05:11:22;94860.00;;;10.83;56.36
78835;BME280;68187;42.682;23.352;2023-04-24T05:13:49;94873.69;;;10.95;57.35
78835;BME280;68187;42.682;23.352;2023-04-24T05:16:16;94866.28;;;10.97;56.35
78835;BME280;68187;42.682;23.352;2023-04-24T05:18:42;94861.31;;;10.90;56.69
78835;BME280;68187;42.682;23.352;2023-04-24T05:21:10;94864.47;;;10.92;56.69
78835;BME280;68187;42.682;23.352;2023-04-24T05:23:38;94867.81;;;11.03;56.68
78835;BME280;68187;42.682;23.352;2023-04-24T05:26:05;94863.56;;;11.07;57.24
78835;BME280;68187;42.682;23.352;2023-04-24T05:28:31;94855.13;;;11.05;56.44
78835;BME280;68187;42.682;23.352;2023-04-24T05:30:58;94861.72;;;11.07;56.68
78835;BME280;68187;42.682;23.352;2023-04-24T05:33:26;94864.34;;;11.12;56.56
78835;BME280;68187;42.682;23.352;2023-04-24T05:35:53;94865.06;;;11.18;56.77
78835;BME280;68187;42.682;23.352;2023-04-24T05:38:19;94866.06;;;11.27;56.14
78835;BME280;68187;42.682;23.352;2023-04-24T05:40:48;94861.00;;;11.35;55.70
78835;BME280;68187;42.682;23.352;2023-04-24T05:43:14;94862.78;;;11.45;56.20
78835;BME280;68187;42.682;23.352;2023-04-24T05:45:41;94866.84;;;11.66;59.23
78835;BME280;68187;42.682;23.352;2023-04-24T05:48:08;94867.81;;;11.80;56.08
78835;BME280;68187;42.682;23.352;2023-04-24T05:50:35;94872.03;;;11.81;56.37
78835;BME280;68187;42.682;23.352;2023-04-24T05:53:01;94861.69;;;11.85;55.49
78835;BME280;68187;42.682;23.352;2023-04-24T05:55:31;94873.28;;;11.89;55.43
78835;BME280;68187;42.682;23.352;2023-04-24T05:57:59;94862.41;;;11.90;55.04
78835;BME280;68187;42.682;23.352;2023-04-24T06:00:26;94858.22;;;11.89;54.69
78835;BME280;68187;42.682;23.352;2023-04-24T06:02:53;94855.84;;;11.88;54.46
78835;BME280;68187;42.682;23.352;2023-04-24T06:05:20;94868.25;;;11.92;55.39
78835;BME280;68187;42.682;23.352;2023-04-24T06:07:47;94857.84;;;12.01;54.54
78835;BME280;68187;42.682;23.352;2023-04-24T06:10:14;94867.31;;;12.07;54.30
78835;BME280;68187;42.682;23.352;2023-04-24T06:12:41;94865.16;;;12.09;54.47
78835;BME280;68187;42.682;23.352;2023-04-24T06:15:10;94863.81;;;12.11;55.08
78835;BME280;68187;42.682;23.352;2023-04-24T06:17:37;94865.63;;;12.16;55.16
78835;BME280;68187;42.682;23.352;2023-04-24T06:20:04;94868.53;;;12.20;54.19
78835;BME280;68187;42.682;23.352;2023-04-24T06:22:32;94869.19;;;12.30;54.14
78835;BME280;68187;42.682;23.352;2023-04-24T06:24:59;94862.09;;;12.49;54.77
78835;BME280;68187;42.682;23.352;2023-04-24T06:27:26;94863.72;;;12.69;53.35
78835;BME280;68187;42.682;23.352;2023-04-24T06:29:53;94851.97;;;12.75;53.57
78835;BME280;68187;42.682;23.352;2023-04-24T06:32:23;94858.72;;;12.86;53.07
78835;BME280;68187;42.682;23.352;2023-04-24T06:34:51;94853.91;;;12.88;53.20
78835;BME280;68187;42.682;23.352;2023-04-24T06:37:18;94862.25;;;13.00;52.46
78835;BME280;68187;42.682;23.352;2023-04-24T06:39:46;94865.66;;;13.06;53.03
78835;BME280;68187;42.682;23.352;2023-04-24T06:42:12;94867.91;;;13.17;52.27
78835;BME280;68187;42.682;23.352;2023-04-24T06:44:39;94856.13;;;13.23;51.74
78835;BME280;68187;42.682;23.352;2023-04-24T06:47:07;94865.06;;;13.46;50.63
78835;BME280;68187;42.682;23.352;2023-04-24T06:49:36;94862.78;;;13.58;51.53
78835;BME280;68187;42.682;23.352;2023-04-24T06:52:04;94863.41;;;13.69;51.62
78835;BME280;68187;42.682;23.352;2023-04-24T06:54:31;94860.44;;;13.70;51.37
78835;BME280;68187;42.682;23.352;2023-04-24T06:56:58;94861.25;;;13.71;51.72
78835;BME280;68187;42.682;23.352;2023-04-24T06:59:25;94862.75;;;13.90;50.44
78835;BME280;68187;42.682;23.352;2023-04-24T07:01:52;94857.59;;;13.99;50.15
78835;BME280;68187;42.682;23.352;2023-04-24T07:04:19;94845.19;;;13.94;51.00
78835;BME280;68187;42.682;23.352;2023-04-24T07:06:48;94843.00;;;13.83;50.52
78835;BME280;68187;42.682;23.352;2023-04-24T07:09:16;94852.25;;;13.85;50.84
78835;BME280;68187;42.682;23.352;2023-04-24T07:11:43;94841.31;;;13.87;51.72
78835;BME280;68187;42.682;23.352;2023-04-24T07:14:10;94836.50;;;13.89;50.03
78835;BME280;68187;42.682;23.352;2023-04-24T07:16:37;94844.31;;;13.99;50.69
78835;BME280;68187;42.682;23.352;2023-04-24T07:19:04;94838.22;;;14.12;50.48
78835;BME280;68187;42.682;23.352;2023-04-24T07:21:31;94835.00;;;14.28;50.10
78835;BME280;68187;42.682;23.352;2023-04-24T07:23:59;94838.38;;;14.48;49.68
78835;BME280;68187;42.682;23.352;2023-04-24T07:26:26;94837.22;;;14.54;50.17
78835;BME280;68187;42.682;23.352;2023-04-24T07:28:53;94836.19;;;14.63;49.45
78835;BME280;68187;42.682;23.352;2023-04-24T07:31:20;94831.59;;;14.69;48.81
78835;BME280;68187;42.682;23.352;2023-04-24T07:33:47;94827.34;;;14.68;48.65
78835;BME280;68187;42.682;23.352;2023-04-24T07:36:14;94813.84;;;14.78;48.73
78835;BME280;68187;42.682;23.352;2023-04-24T07:38:44;94812.53;;;15.02;49.16
78835;BME280;68187;42.682;23.352;2023-04-24T07:41:12;94816.00;;;15.25;47.41
78835;BME280;68187;42.682;23.352;2023-04-24T07:43:40;94829.34;;;15.47;47.26
78835;BME280;68187;42.682;23.352;2023-04-24T07:46:06;94823.53;;;15.45;46.44
78835;BME280;68187;42.682;23.352;2023-04-24T07:48:33;94819.69;;;15.51;46.78
78835;BME280;68187;42.682;23.352;2023-04-24T07:51:00;94817.94;;;15.69;47.09
78835;BME280;68187;42.682;23.352;2023-04-24T07:53:27;94814.44;;;15.91;46.87
78835;BME280;68187;42.682;23.352;2023-04-24T07:55:54;94816.66;;;15.97;47.12
78835;BME280;68187;42.682;23.352;2023-04-24T07:58:22;94787.19;;;15.94;46.28
78835;BME280;68187;42.682;23.352;2023-04-24T08:00:49;94804.53;;;16.13;45.45
78835;BME280;68187;42.682;23.352;2023-04-24T08:03:16;94809.13;;;16.21;45.25
78835;BME280;68187;42.682;23.352;2023-04-24T08:05:45;94801.94;;;16.30;46.37
78835;BME280;68187;42.682;23.352;2023-04-24T08:08:12;94801.38;;;16.42;45.56
78835;BME280;68187;42.682;23.352;2023-04-24T08:10:39;94790.19;;;16.31;44.56
78835;BME280;68187;42.682;23.352;2023-04-24T08:13:06;94806.44;;;16.52;46.66
78835;BME280;68187;42.682;23.352;2023-04-24T08:15:34;94804.31;;;16.71;45.79
78835;BME280;68187;42.682;23.352;2023-04-24T08:18:01;94802.59;;;16.92;44.17
78835;BME280;68187;42.682;23.352;2023-04-24T08:20:27;94799.97;;;17.01;43.54
78835;BME280;68187;42.682;23.352;2023-04-24T08:22:54;94784.75;;;17.10;43.69
78835;BME280;68187;42.682;23.352;2023-04-24T08:25:21;94775.16;;;17.18;45.30
78835;BME280;68187;42.682;23.352;2023-04-24T08:27:50;94785.84;;;17.43;42.17
78835;BME280;68187;42.682;23.352;2023-04-24T08:30:17;94788.69;;;17.55;43.03
78835;BME280;68187;42.682;23.352;2023-04-24T08:32:45;94784.13;;;17.64;42.82
78835;BME280;68187;42.682;23.352;2023-04-24T08:35:12;94776.09;;;17.73;41.84
78835;BME280;68187;42.682;23.352;2023-04-24T08:37:38;94783.00;;;17.74;41.45
78835;BME280;68187;42.682;23.352;2023-04-24T08:40:12;94783.31;;;17.72;41.09
78835;BME280;68187;42.682;23.352;2023-04-24T08:42:41;94767.13;;;17.77;41.66
78835;BME280;68187;42.682;23.352;2023-04-24T08:45:09;94770.56;;;17.87;42.07
78835;BME280;68187;42.682;23.352;2023-04-24T08:47:37;94765.47;;;18.02;40.46
78835;BME280;68187;42.682;23.352;2023-04-24T08:50:07;94757.13;;;18.04;41.77
78835;BME280;68187;42.682;23.352;2023-04-24T08:52:34;94742.03;;;18.08;42.60
78835;BME280;68187;42.682;23.352;2023-04-24T08:55:02;94746.81;;;18.31;39.26
78835;BME280;68187;42.682;23.352;2023-04-24T08:57:29;94749.91;;;18.50;39.44
78835;BME280;68187;42.682;23.352;2023-04-24T08:59:58;94753.47;;;18.55;39.46
78835;BME280;68187;42.682;23.352;2023-04-24T09:02:25;94747.25;;;18.71;39.42
78835;BME280;68187;42.682;23.352;2023-04-24T09:04:52;94721.53;;;18.79;39.73
78835;BME280;68187;42.682;23.352;2023-04-24T09:07:27;94730.09;;;19.13;38.93
78835;BME280;68187;42.682;23.352;2023-04-24T09:09:57;94721.00;;;19.27;37.93
78835;BME280;68187;42.682;23.352;2023-04-24T09:12:25;94736.06;;;19.40;37.90
78835;BME280;68187;42.682;23.352;2023-04-24T09:14:52;94729.56;;;19.41;37.58
78835;BME280;68187;42.682;23.352;2023-04-24T09:17:20;94730.00;;;19.63;39.26
78835;BME280;68187;42.682;23.352;2023-04-24T09:19:48;94720.34;;;19.83;38.13
78835;BME280;68187;42.682;23.352;2023-04-24T09:22:15;94724.38;;;19.89;36.29
78835;BME280;68187;42.682;23.352;2023-04-24T09:24:45;94721.09;;;19.71;36.11
78835;BME280;68187;42.682;23.352;2023-04-24T09:27:12;94709.44;;;19.55;36.99
78835;BME280;68187;42.682;23.352;2023-04-24T09:29:53;94709.97;;;19.49;36.75
78835;BME280;68187;42.682;23.352;2023-04-24T09:32:21;94711.31;;;19.55;36.78
78835;BME280;68187;42.682;23.352;2023-04-24T09:35:05;94706.22;;;19.62;36.63
78835;BME280;68187;42.682;23.352;2023-04-24T09:37:35;94687.50;;;19.74;37.65
78835;BME280;68187;42.682;23.352;2023-04-24T09:40:14;94676.78;;;19.86;36.14
78835;BME280;68187;42.682;23.352;2023-04-24T09:42:44;94677.25;;;20.00;37.04
78835;BME280;68187;42.682;23.352;2023-04-24T09:45:11;94696.91;;;20.16;36.07
78835;BME280;68187;42.682;23.352;2023-04-24T09:47:39;94681.69;;;20.08;36.60
78835;BME280;68187;42.682;23.352;2023-04-24T09:50:10;94693.56;;;20.19;37.03
78835;BME280;68187;42.682;23.352;2023-04-24T09:52:40;94695.81;;;20.29;35.50
78835;BME280;68187;42.682;23.352;2023-04-24T09:55:12;94691.13;;;20.50;35.92
78835;BME280;68187;42.682;23.352;2023-04-24T09:57:47;94686.06;;;20.61;33.86
78835;BME280;68187;42.682;23.352;2023-04-24T10:00:18;94681.56;;;20.77;35.29
78835;BME280;68187;42.682;23.352;2023-04-24T10:02:50;94678.94;;;20.93;35.20
78835;BME280;68187;42.682;23.352;2023-04-24T10:05:17;94664.59;;;21.13;33.38
78835;BME280;68187;42.682;23.352;2023-04-24T10:07:44;94645.59;;;21.06;34.11
78835;BME280;68187;42.682;23.352;2023-04-24T10:10:13;94653.47;;;21.42;34.68
78835;BME280;68187;42.682;23.352;2023-04-24T10:12:40;94659.97;;;21.69;33.25
78835;BME280;68187;42.682;23.352;2023-04-24T10:15:10;94656.91;;;21.70;32.91
78835;BME280;68187;42.682;23.352;2023-04-24T10:17:38;94635.16;;;21.75;32.28
78835;BME280;68187;42.682;23.352;2023-04-24T10:20:06;94637.03;;;21.87;31.78
78835;BME280;68187;42.682;23.352;2023-04-24T10:22:33;94637.63;;;21.96;33.38
78835;BME280;68187;42.682;23.352;2023-04-24T10:25:03;94623.56;;;22.02;33.92
78835;BME280;68187;42.682;23.352;2023-04-24T10:27:32;94616.53;;;22.14;30.87
78835;BME280;68187;42.682;23.352;2023-04-24T10:30:01;94630.72;;;22.30;31.46
78835;BME280;68187;42.682;23.352;2023-04-24T10:32:28;94606.59;;;22.33;30.42
78835;BME280;68187;42.682;23.352;2023-04-24T10:34:55;94605.72;;;22.29;32.04
78835;BME280;68187;42.682;23.352;2023-04-24T10:37:23;94616.59;;;22.52;32.34
78835;BME280;68187;42.682;23.352;2023-04-24T10:39:50;94619.78;;;22.73;30.24
78835;BME280;68187;42.682;23.352;2023-04-24T10:42:20;94595.72;;;22.80;30.31
78835;BME280;68187;42.682;23.352;2023-04-24T10:44:48;94586.34;;;22.74;30.08
78835;BME280;68187;42.682;23.352;2023-04-24T10:47:15;94610.34;;;22.63;29.80
78835;BME280;68187;42.682;23.352;2023-04-24T10:49:42;94610.91;;;22.38;30.11
78835;BME280;68187;42.682;23.352;2023-04-24T10:52:09;94595.53;;;22.03;30.77
78835;BME280;68187;42.682;23.352;2023-04-24T10:54:42;94597.91;;;21.89;31.75
78835;BME280;68187;42.682;23.352;2023-04-24T10:57:27;94592.25;;;22.10;30.27
78835;BME280;68187;42.682;23.352;2023-04-24T11:00:18;94596.13;;;22.13;31.13
78835;BME280;68187;42.682;23.352;2023-04-24T11:02:46;94596.28;;;22.20;31.23
78835;BME280;68187;42.682;23.352;2023-04-24T11:05:16;94577.41;;;22.00;30.56
78835;BME280;68187;42.682;23.352;2023-04-24T11:08:10;94573.94;;;21.69;30.62
78835;BME280;68187;42.682;23.352;2023-04-24T11:10:43;94589.91;;;21.46;32.51
78835;BME280;68187;42.682;23.352;2023-04-24T11:13:10;94592.28;;;21.20;33.17
78835;BME280;68187;42.682;23.352;2023-04-24T11:15:41;94578.75;;;20.89;34.67
78835;BME280;68187;42.682;23.352;2023-04-24T11:18:13;94573.47;;;20.65;34.93
78835;BME280;68187;42.682;23.352;2023-04-24T11:20:41;94586.94;;;20.52;34.11
78835;BME280;68187;42.682;23.352;2023-04-24T11:23:08;94581.63;;;20.28;35.76
78835;BME280;68187;42.682;23.352;2023-04-24T11:25:35;94583.63;;;19.95;35.95
78835;BME280;68187;42.682;23.352;2023-04-24T11:28:05;94615.56;;;19.88;35.73
78835;BME280;68187;42.682;23.352;2023-04-24T11:30:32;94613.06;;;19.47;36.90
78835;BME280;68187;42.682;23.352;2023-04-24T11:33:05;94648.19;;;19.00;42.37
78835;BME280;68187;42.682;23.352;2023-04-24T11:35:35;94639.47;;;18.50;49.05
78835;BME280;68187;42.682;23.352;2023-04-24T11:38:06;94645.28;;;18.43;50.30
78835;BME280;68187;42.682;23.352;2023-04-24T11:40:33;94641.50;;;18.74;52.49
78835;BME280;68187;42.682;23.352;2023-04-24T11:43:00;94630.19;;;18.89;43.22
78835;BME280;68187;42.682;23.352;2023-04-24T11:45:28;94625.56;;;18.77;42.46
78835;BME280;68187;42.682;23.352;2023-04-24T11:47:56;94598.44;;;18.46;40.56
78835;BME280;68187;42.682;23.352;2023-04-24T11:50:26;94619.94;;;18.49;41.12
78835;BME280;68187;42.682;23.352;2023-04-24T11:52:55;94624.31;;;18.54;41.88
78835;BME280;68187;42.682;23.352;2023-04-24T11:55:24;94617.72;;;18.72;40.94
78835;BME280;68187;42.682;23.352;2023-04-24T11:57:53;94616.34;;;18.87;39.26
78835;BME280;68187;42.682;23.352;2023-04-24T12:00:23;94602.88;;;18.95;39.24
78835;BME280;68187;42.682;23.352;2023-04-24T12:02:50;94601.16;;;19.11;38.96
78835;BME280;68187;42.682;23.352;2023-04-24T12:05:21;94595.59;;;19.29;40.25
78835;BME280;68187;42.682;23.352;2023-04-24T12:07:49;94588.44;;;19.53;38.23
78835;BME280;68187;42.682;23.352;2023-04-24T12:10:20;94587.19;;;19.63;37.92
78835;BME280;68187;42.682;23.352;2023-04-24T12:12:46;94580.75;;;19.76;39.52
78835;BME280;68187;42.682;23.352;2023-04-24T12:15:16;94581.63;;;19.68;37.00
78835;BME280;68187;42.682;23.352;2023-04-24T12:17:43;94574.69;;;19.43;36.68
78835;BME280;68187;42.682;23.352;2023-04-24T12:20:11;94578.06;;;19.40;37.70
78835;BME280;68187;42.682;23.352;2023-04-24T12:22:44;94579.59;;;19.41;37.65
78835;BME280;68187;42.682;23.352;2023-04-24T12:25:14;94554.00;;;19.19;37.89
78835;BME280;68187;42.682;23.352;2023-04-24T12:27:41;94573.97;;;19.34;38.69
78835;BME280;68187;42.682;23.352;2023-04-24T12:30:10;94563.03;;;19.27;38.43
78835;BME280;68187;42.682;23.352;2023-04-24T12:32:41;94563.88;;;19.39;37.82
78835;BME280;68187;42.682;23.352;2023-04-24T12:35:09;94556.34;;;19.33;36.73
78835;BME280;68187;42.682;23.352;2023-04-24T12:37:36;94537.81;;;19.15;36.93
78835;BME280;68187;42.682;23.352;2023-04-24T12:40:06;94538.47;;;19.12;37.66
78835;BME280;68187;42.682;23.352;2023-04-24T12:42:36;94544.03;;;19.19;37.43
78835;BME280;68187;42.682;23.352;2023-04-24T12:45:09;94517.81;;;19.13;37.63
78835;BME280;68187;42.682;23.352;2023-04-24T12:47:45;94519.28;;;19.10;38.28
78835;BME280;68187;42.682;23.352;2023-04-24T12:50:14;94537.69;;;19.24;37.02
78835;BME280;68187;42.682;23.352;2023-04-24T12:52:41;94527.50;;;18.93;36.95
78835;BME280;68187;42.682;23.352;2023-04-24T12:55:09;94518.69;;;18.93;38.44